sensor_id;sensor_type;location;lat;lon;timestamp;pressure;altitude;pressure_sealevel;temperature;humidity
50632;BME280;49583;45.590;-122.498;2023-04-24T00:00:38;101043.01;;;13.31;70.92
50632;BME280;49583;45.590;-122.498;2023-04-24T00:03:04;101040.30;;;13.29;70.66
50632;BME280;49583;45.590;-122.498;2023-04-24T00:05:18;101041.11;;;13.26;70.24
50632;BME280;49583;45.590;-122.498;2023-04-24T00:07:30;101042.83;;;13.26;70.39
50632;BME280;49583;45.590;-122.498;2023-04-24T00:09:45;101039.48;;;13.23;70.68
50632;BME280;49583;45.590;-122.498;2023-04-24T00:11:57;101038.84;;;13.22;70.51
50632;BME280;49583;45.590;-122.498;2023-04-24T00:14:10;101037.98;;;13.17;70.30
50632;BME280;49583;45.590;-122.498;2023-04-24T00:16:23;101041.17;;;13.16;70.32
50632;BME280;49583;45.590;-122.498;2023-04-24T00:18:36;101036.78;;;13.12;70.38
50632;BME280;49583;45.590;-122.498;2023-04-24T00:20:48;101041.96;;;13.08;70.41
50632;BME280;49583;45.590;-122.498;2023-04-24T00:23:01;101044.59;;;13.05;70.66
50632;BME280;49583;45.590;-122.498;2023-04-24T00:25:14;101047.67;;;13.03;70.99
50632;BME280;49583;45.590;-122.498;2023-04-24T00:27:26;101049.60;;;12.99;70.89
50632;BME280;49583;45.590;-122.498;2023-04-24T00:29:38;101044.81;;;12.96;71.21
50632;BME280;49583;45.590;-122.498;2023-04-24T00:31:52;101044.92;;;12.93;71.35
50632;BME280;49583;45.590;-122.498;2023-04-24T00:34:05;101045.44;;;12.91;71.72
50632;BME280;49583;45.590;-122.498;2023-04-24T00:36:17;101045.72;;;12.90;71.42
50632;BME280;49583;45.590;-122.498;2023-04-24T00:38:31;101050.57;;;12.89;71.09
50632;BME280;49583;45.590;-122.498;2023-04-24T00:40:44;101052.80;;;12.87;71.07
50632;BME280;49583;45.590;-122.498;2023-04-24T00:42:57;101048.84;;;12.84;71.32
50632;BME280;49583;45.590;-122.498;2023-04-24T00:45:12;101051.27;;;12.83;71.08
50632;BME280;49583;45.590;-122.498;2023-04-24T00:47:24;101052.77;;;12.80;70.51
50632;BME280;49583;45.590;-122.498;2023-04-24T00:49:37;101050.93;;;12.79;70.95
50632;BME280;49583;45.590;-122.498;2023-04-24T00:51:50;101056.56;;;12.77;71.22
50632;BME280;49583;45.590;-122.498;2023-04-24T00:54:02;101059.29;;;12.75;71.32
50632;BME280;49583;45.590;-122.498;2023-04-24T00:56:15;101059.95;;;12.73;71.42
50632;BME280;49583;45.590;-122.498;2023-04-24T00:58:28;101061.92;;;12.70;71.37
50632;BME280;49583;45.590;-122.498;2023-04-24T01:00:41;101060.64;;;12.68;71.29
50632;BME280;49583;45.590;-122.498;2023-04-24T01:02:55;101057.11;;;12.64;71.25
50632;BME280;49583;45.590;-122.498;2023-04-24T01:05:10;101054.00;;;12.62;71.05
50632;BME280;49583;45.590;-122.498;2023-04-24T01:07:24;101050.48;;;12.58;71.07
50632;BME280;49583;45.590;-122.498;2023-04-24T01:09:37;101042.39;;;12.54;71.00
50632;BME280;49583;45.590;-122.498;2023-04-24T01:11:51;101037.58;;;12.52;70.71
50632;BME280;49583;45.590;-122.498;2023-04-24T01:14:03;101031.15;;;12.49;70.52
50632;BME280;49583;45.590;-122.498;2023-04-24T01:16:16;101035.58;;;12.46;69.74
50632;BME280;49583;45.590;-122.498;2023-04-24T01:18:31;101026.20;;;12.44;69.73
50632;BME280;49583;45.590;-122.498;2023-04-24T01:20:44;101017.95;;;12.44;69.69
50632;BME280;49583;45.590;-122.498;2023-04-24T01:22:57;101016.45;;;12.43;69.46
50632;BME280;49583;45.590;-122.498;2023-04-24T01:25:11;101012.94;;;12.44;69.74
50632;BME280;49583;45.590;-122.498;2023-04-24T01:27:24;101014.19;;;12.44;69.59
50632;BME280;49583;45.590;-122.498;2023-04-24T01:29:36;101010.98;;;12.44;69.62
50632;BME280;49583;45.590;-122.498;2023-04-24T01:31:51;101013.50;;;12.45;69.26
50632;BME280;49583;45.590;-122.498;2023-04-24T01:34:04;101008.86;;;12.44;68.93
50632;BME280;49583;45.590;-122.498;2023-04-24T01:36:18;101015.11;;;12.43;68.75
50632;BME280;49583;45.590;-122.498;2023-04-24T01:38:34;101014.32;;;12.43;68.93
50632;BME280;49583;45.590;-122.498;2023-04-24T01:40:47;101020.10;;;12.41;68.97
50632;BME280;49583;45.590;-122.498;2023-04-24T01:43:00;101018.96;;;12.40;68.68
50632;BME280;49583;45.590;-122.498;2023-04-24T01:45:13;101018.24;;;12.39;68.58
50632;BME280;49583;45.590;-122.498;2023-04-24T01:47:26;101017.67;;;12.36;68.42
50632;BME280;49583;45.590;-122.498;2023-04-24T01:49:40;101017.39;;;12.34;68.34
50632;BME280;49583;45.590;-122.498;2023-04-24T01:51:53;101019.96;;;12.34;68.15
50632;BME280;49583;45.590;-122.498;2023-04-24T01:54:06;101013.98;;;12.33;67.85
50632;BME280;49583;45.590;-122.498;2023-04-24T01:56:19;101011.44;;;12.32;67.91
50632;BME280;49583;45.590;-122.498;2023-04-24T01:58:32;101007.04;;;12.31;68.02
50632;BME280;49583;45.590;-122.498;2023-04-24T02:00:45;101009.16;;;12.32;68.18
50632;BME280;49583;45.590;-122.498;2023-04-24T02:02:58;101003.58;;;12.31;68.09
50632;BME280;49583;45.590;-122.498;2023-04-24T02:05:12;100996.88;;;12.29;67.72
50632;BME280;49583;45.590;-122.498;2023-04-24T02:07:25;100994.08;;;12.26;67.35
50632;BME280;49583;45.590;-122.498;2023-04-24T02:09:38;100991.81;;;12.23;67.09
50632;BME280;49583;45.590;-122.498;2023-04-24T02:11:50;100986.72;;;12.22;67.10
50632;BME280;49583;45.590;-122.498;2023-04-24T02:14:03;100992.04;;;12.22;66.86
50632;BME280;49583;45.590;-122.498;2023-04-24T02:16:16;100993.59;;;12.21;66.84
50632;BME280;49583;45.590;-122.498;2023-04-24T02:18:28;100995.13;;;12.20;66.77
50632;BME280;49583;45.590;-122.498;2023-04-24T02:20:41;100999.56;;;12.19;66.79
50632;BME280;49583;45.590;-122.498;2023-04-24T02:22:53;100997.17;;;12.16;66.72
50632;BME280;49583;45.590;-122.498;2023-04-24T02:25:06;100994.87;;;12.14;66.54
50632;BME280;49583;45.590;-122.498;2023-04-24T02:27:19;100994.51;;;12.12;66.42
50632;BME280;49583;45.590;-122.498;2023-04-24T02:29:32;101001.25;;;12.08;66.29
50632;BME280;49583;45.590;-122.498;2023-04-24T02:31:45;101001.20;;;12.03;65.93
50632;BME280;49583;45.590;-122.498;2023-04-24T02:33:58;100999.55;;;11.98;65.87
50632;BME280;49583;45.590;-122.498;2023-04-24T02:36:11;100999.68;;;11.93;65.41
50632;BME280;49583;45.590;-122.498;2023-04-24T02:38:23;100995.81;;;11.88;65.44
50632;BME280;49583;45.590;-122.498;2023-04-24T02:40:35;101002.56;;;11.84;65.69
50632;BME280;49583;45.590;-122.498;2023-04-24T02:42:48;101005.05;;;11.83;65.74
50632;BME280;49583;45.590;-122.498;2023-04-24T02:45:00;101002.84;;;11.83;65.93
50632;BME280;49583;45.590;-122.498;2023-04-24T02:47:13;101005.36;;;11.83;65.93
50632;BME280;49583;45.590;-122.498;2023-04-24T02:49:27;101005.04;;;11.82;65.95
50632;BME280;49583;45.590;-122.498;2023-04-24T02:51:39;101009.30;;;11.84;65.90
50632;BME280;49583;45.590;-122.498;2023-04-24T02:53:52;101011.89;;;11.84;65.85
50632;BME280;49583;45.590;-122.498;2023-04-24T02:56:05;101012.36;;;11.85;65.70
50632;BME280;49583;45.590;-122.498;2023-04-24T02:58:18;101009.77;;;11.85;65.70
50632;BME280;49583;45.590;-122.498;2023-04-24T03:00:31;101008.91;;;11.85;65.81
50632;BME280;49583;45.590;-122.498;2023-04-24T03:02:44;101005.84;;;11.84;65.42
50632;BME280;49583;45.590;-122.498;2023-04-24T03:04:57;101010.95;;;11.81;65.45
50632;BME280;49583;45.590;-122.498;2023-04-24T03:07:10;101010.89;;;11.78;65.33
50632;BME280;49583;45.590;-122.498;2023-04-24T03:09:22;101008.45;;;11.74;65.06
50632;BME280;49583;45.590;-122.498;2023-04-24T03:11:34;101012.86;;;11.69;64.81
50632;BME280;49583;45.590;-122.498;2023-04-24T03:13:49;101012.73;;;11.64;64.81
50632;BME280;49583;45.590;-122.498;2023-04-24T03:16:02;101011.48;;;11.60;64.95
50632;BME280;49583;45.590;-122.498;2023-04-24T03:18:15;101011.36;;;11.58;65.03
50632;BME280;49583;45.590;-122.498;2023-04-24T03:20:31;101009.18;;;11.56;65.01
50632;BME280;49583;45.590;-122.498;2023-04-24T03:22:44;101014.10;;;11.55;65.13
50632;BME280;49583;45.590;-122.498;2023-04-24T03:24:57;101013.80;;;11.56;65.20
50632;BME280;49583;45.590;-122.498;2023-04-24T03:27:12;101016.40;;;11.56;65.21
50632;BME280;49583;45.590;-122.498;2023-04-24T03:29:32;101016.66;;;11.54;65.05
50632;BME280;49583;45.590;-122.498;2023-04-24T03:31:45;101011.09;;;11.53;64.74
50632;BME280;49583;45.590;-122.498;2023-04-24T03:33:58;101014.25;;;11.51;64.65
50632;BME280;49583;45.590;-122.498;2023-04-24T03:36:11;101016.54;;;11.49;64.77
50632;BME280;49583;45.590;-122.498;2023-04-24T03:38:25;101016.35;;;11.47;64.84
50632;BME280;49583;45.590;-122.498;2023-04-24T03:40:41;101018.09;;;11.44;64.93
50632;BME280;49583;45.590;-122.498;2023-04-24T03:43:12;101022.42;;;11.42;64.90
50632;BME280;49583;45.590;-122.498;2023-04-24T03:45:26;101028.86;;;11.40;65.12
50632;BME280;49583;45.590;-122.498;2023-04-24T03:47:41;101031.81;;;11.39;64.95
50632;BME280;49583;45.590;-122.498;2023-04-24T03:49:54;101036.74;;;11.38;65.04
50632;BME280;49583;45.590;-122.498;2023-04-24T03:52:07;101037.44;;;11.37;64.99
50632;BME280;49583;45.590;-122.498;2023-04-24T03:54:20;101038.15;;;11.35;65.22
50632;BME280;49583;45.590;-122.498;2023-04-24T03:56:33;101044.29;;;11.33;65.12
50632;BME280;49583;45.590;-122.498;2023-04-24T03:58:46;101044.93;;;11.30;65.21
50632;BME280;49583;45.590;-122.498;2023-04-24T04:00:59;101042.05;;;11.27;65.21
50632;BME280;49583;45.590;-122.498;2023-04-24T04:03:28;101050.94;;;11.29;65.31
50632;BME280;49583;45.590;-122.498;2023-04-24T04:05:41;101052.17;;;11.28;65.49
50632;BME280;49583;45.590;-122.498;2023-04-24T04:07:53;101059.89;;;11.29;65.48
50632;BME280;49583;45.590;-122.498;2023-04-24T04:10:08;101056.22;;;11.27;65.42
50632;BME280;49583;45.590;-122.498;2023-04-24T04:12:23;101047.96;;;11.23;65.14
50632;BME280;49583;45.590;-122.498;2023-04-24T04:14:35;101051.16;;;11.19;65.42
50632;BME280;49583;45.590;-122.498;2023-04-24T04:16:48;101053.27;;;11.15;65.25
50632;BME280;49583;45.590;-122.498;2023-04-24T04:19:03;101055.71;;;11.13;65.22
50632;BME280;49583;45.590;-122.498;2023-04-24T04:21:16;101063.02;;;11.11;65.33
50632;BME280;49583;45.590;-122.498;2023-04-24T04:23:30;101066.41;;;11.11;65.56
50632;BME280;49583;45.590;-122.498;2023-04-24T04:25:54;101068.51;;;11.11;65.48
50632;BME280;49583;45.590;-122.498;2023-04-24T04:28:12;101068.24;;;11.10;65.41
50632;BME280;49583;45.590;-122.498;2023-04-24T04:30:26;101065.61;;;11.08;65.21
50632;BME280;49583;45.590;-122.498;2023-04-24T04:32:43;101066.60;;;11.07;65.43
50632;BME280;49583;45.590;-122.498;2023-04-24T04:34:55;101069.58;;;11.06;65.33
50632;BME280;49583;45.590;-122.498;2023-04-24T04:37:09;101059.11;;;11.04;65.47
50632;BME280;49583;45.590;-122.498;2023-04-24T04:39:33;101058.10;;;11.02;65.62
50632;BME280;49583;45.590;-122.498;2023-04-24T04:42:06;101061.88;;;11.00;65.62
50632;BME280;49583;45.590;-122.498;2023-04-24T04:44:23;101055.05;;;10.99;65.67
50632;BME280;49583;45.590;-122.498;2023-04-24T04:46:39;101057.85;;;10.96;65.34
50632;BME280;49583;45.590;-122.498;2023-04-24T04:49:13;101056.36;;;10.90;65.07
50632;BME280;49583;45.590;-122.498;2023-04-24T04:51:26;101054.60;;;10.85;65.22
50632;BME280;49583;45.590;-122.498;2023-04-24T04:53:39;101060.91;;;10.84;65.17
50632;BME280;49583;45.590;-122.498;2023-04-24T04:55:52;101058.48;;;10.83;65.28
50632;BME280;49583;45.590;-122.498;2023-04-24T04:58:09;101060.54;;;10.81;65.33
50632;BME280;49583;45.590;-122.498;2023-04-24T05:00:22;101063.22;;;10.79;65.22
50632;BME280;49583;45.590;-122.498;2023-04-24T05:02:35;101064.25;;;10.77;65.40
50632;BME280;49583;45.590;-122.498;2023-04-24T05:04:48;101069.77;;;10.75;65.55
50632;BME280;49583;45.590;-122.498;2023-04-24T05:07:02;101069.17;;;10.68;65.43
50632;BME280;49583;45.590;-122.498;2023-04-24T05:09:16;101079.75;;;10.68;65.27
50632;BME280;49583;45.590;-122.498;2023-04-24T05:11:35;101081.72;;;10.63;65.44
50632;BME280;49583;45.590;-122.498;2023-04-24T05:13:48;101080.64;;;10.60;65.36
50632;BME280;49583;45.590;-122.498;2023-04-24T05:16:07;101080.53;;;10.57;65.41
50632;BME280;49583;45.590;-122.498;2023-04-24T05:18:20;101079.85;;;10.57;65.66
50632;BME280;49583;45.590;-122.498;2023-04-24T05:20:34;101082.40;;;10.54;65.59
50632;BME280;49583;45.590;-122.498;2023-04-24T05:22:46;101085.20;;;10.53;65.62
50632;BME280;49583;45.590;-122.498;2023-04-24T05:25:00;101083.01;;;10.53;65.83
50632;BME280;49583;45.590;-122.498;2023-04-24T05:27:20;101081.48;;;10.51;65.76
50632;BME280;49583;45.590;-122.498;2023-04-24T05:29:33;101085.74;;;10.50;65.76
50632;BME280;49583;45.590;-122.498;2023-04-24T05:31:46;101084.75;;;10.49;65.83
50632;BME280;49583;45.590;-122.498;2023-04-24T05:33:59;101089.38;;;10.46;65.64
50632;BME280;49583;45.590;-122.498;2023-04-24T05:36:12;101090.29;;;10.45;65.74
50632;BME280;49583;45.590;-122.498;2023-04-24T05:38:24;101094.19;;;10.44;65.91
50632;BME280;49583;45.590;-122.498;2023-04-24T05:40:37;101092.43;;;10.43;65.91
50632;BME280;49583;45.590;-122.498;2023-04-24T05:42:49;101087.70;;;10.42;66.18
50632;BME280;49583;45.590;-122.498;2023-04-24T05:45:02;101096.54;;;10.39;66.06
50632;BME280;49583;45.590;-122.498;2023-04-24T05:47:16;101087.89;;;10.38;66.19
50632;BME280;49583;45.590;-122.498;2023-04-24T05:49:29;101089.23;;;10.33;66.21
50632;BME280;49583;45.590;-122.498;2023-04-24T05:51:42;101093.91;;;10.32;66.30
50632;BME280;49583;45.590;-122.498;2023-04-24T05:53:54;101090.29;;;10.31;66.25
50632;BME280;49583;45.590;-122.498;2023-04-24T05:56:07;101095.25;;;10.30;66.34
50632;BME280;49583;45.590;-122.498;2023-04-24T05:58:20;101092.80;;;10.29;66.32
50632;BME280;49583;45.590;-122.498;2023-04-24T06:00:32;101092.84;;;10.27;66.34
50632;BME280;49583;45.590;-122.498;2023-04-24T06:02:46;101097.31;;;10.28;66.85
50632;BME280;49583;45.590;-122.498;2023-04-24T06:04:59;101095.90;;;10.28;66.91
50632;BME280;49583;45.590;-122.498;2023-04-24T06:07:13;101092.62;;;10.25;66.75
50632;BME280;49583;45.590;-122.498;2023-04-24T06:09:26;101097.50;;;10.29;67.14
50632;BME280;49583;45.590;-122.498;2023-04-24T06:11:38;101101.92;;;10.26;66.88
50632;BME280;49583;45.590;-122.498;2023-04-24T06:13:51;101100.77;;;10.23;67.12
50632;BME280;49583;45.590;-122.498;2023-04-24T06:16:24;101099.77;;;10.21;66.99
50632;BME280;49583;45.590;-122.498;2023-04-24T06:18:41;101098.98;;;10.18;67.55
50632;BME280;49583;45.590;-122.498;2023-04-24T06:20:53;101092.77;;;10.13;67.81
50632;BME280;49583;45.590;-122.498;2023-04-24T06:23:06;101093.00;;;10.10;67.67
50632;BME280;49583;45.590;-122.498;2023-04-24T06:25:18;101094.95;;;10.08;67.78
50632;BME280;49583;45.590;-122.498;2023-04-24T06:27:32;101101.06;;;10.05;67.87
50632;BME280;49583;45.590;-122.498;2023-04-24T06:29:44;101098.28;;;10.03;68.05
50632;BME280;49583;45.590;-122.498;2023-04-24T06:32:02;101095.73;;;9.99;68.43
50632;BME280;49583;45.590;-122.498;2023-04-24T06:34:15;101101.28;;;10.00;68.34
50632;BME280;49583;45.590;-122.498;2023-04-24T06:36:27;101104.04;;;9.97;68.54
50632;BME280;49583;45.590;-122.498;2023-04-24T06:38:40;101112.29;;;9.96;68.86
50632;BME280;49583;45.590;-122.498;2023-04-24T06:40:53;101111.21;;;9.92;69.10
50632;BME280;49583;45.590;-122.498;2023-04-24T06:43:05;101109.57;;;9.89;68.75
50632;BME280;49583;45.590;-122.498;2023-04-24T06:45:18;101111.86;;;9.88;69.06
50632;BME280;49583;45.590;-122.498;2023-04-24T06:47:31;101115.33;;;9.86;69.28
50632;BME280;49583;45.590;-122.498;2023-04-24T06:49:44;101117.61;;;9.84;69.07
50632;BME280;49583;45.590;-122.498;2023-04-24T06:51:56;101118.02;;;9.85;69.45
50632;BME280;49583;45.590;-122.498;2023-04-24T06:54:09;101121.73;;;9.84;69.34
50632;BME280;49583;45.590;-122.498;2023-04-24T06:56:22;101117.65;;;9.83;69.38
50632;BME280;49583;45.590;-122.498;2023-04-24T06:58:35;101117.40;;;9.82;69.81
50632;BME280;49583;45.590;-122.498;2023-04-24T07:00:48;101120.15;;;9.80;69.80
50632;BME280;49583;45.590;-122.498;2023-04-24T07:03:01;101116.70;;;9.78;69.79
50632;BME280;49583;45.590;-122.498;2023-04-24T07:05:15;101118.59;;;9.76;70.17
50632;BME280;49583;45.590;-122.498;2023-04-24T07:07:29;101118.02;;;9.75;70.13
50632;BME280;49583;45.590;-122.498;2023-04-24T07:09:42;101119.02;;;9.72;70.69
50632;BME280;49583;45.590;-122.498;2023-04-24T07:11:55;101127.95;;;9.71;70.21
50632;BME280;49583;45.590;-122.498;2023-04-24T07:14:08;101135.55;;;9.69;70.20
50632;BME280;49583;45.590;-122.498;2023-04-24T07:16:21;101131.85;;;9.67;70.51
50632;BME280;49583;45.590;-122.498;2023-04-24T07:18:34;101129.91;;;9.65;70.62
50632;BME280;49583;45.590;-122.498;2023-04-24T07:20:47;101133.18;;;9.63;70.59
50632;BME280;49583;45.590;-122.498;2023-04-24T07:23:00;101136.64;;;9.61;70.68
50632;BME280;49583;45.590;-122.498;2023-04-24T07:25:13;101137.18;;;9.61;70.93
50632;BME280;49583;45.590;-122.498;2023-04-24T07:27:26;101146.46;;;9.60;70.86
50632;BME280;49583;45.590;-122.498;2023-04-24T07:29:38;101144.34;;;9.60;70.68
50632;BME280;49583;45.590;-122.498;2023-04-24T07:31:51;101146.55;;;9.60;70.96
50632;BME280;49583;45.590;-122.498;2023-04-24T07:34:04;101147.60;;;9.59;70.87
50632;BME280;49583;45.590;-122.498;2023-04-24T07:36:17;101148.00;;;9.57;71.30
50632;BME280;49583;45.590;-122.498;2023-04-24T07:38:31;101152.77;;;9.55;71.60
50632;BME280;49583;45.590;-122.498;2023-04-24T07:40:44;101154.67;;;9.54;71.62
50632;BME280;49583;45.590;-122.498;2023-04-24T07:42:59;101152.23;;;9.53;71.59
50632;BME280;49583;45.590;-122.498;2023-04-24T07:45:11;101154.42;;;9.53;71.72
50632;BME280;49583;45.590;-122.498;2023-04-24T07:47:24;101159.38;;;9.54;72.06
50632;BME280;49583;45.590;-122.498;2023-04-24T07:49:36;101164.38;;;9.54;72.40
50632;BME280;49583;45.590;-122.498;2023-04-24T07:51:50;101162.83;;;9.52;72.17
50632;BME280;49583;45.590;-122.498;2023-04-24T07:54:02;101163.12;;;9.49;72.25
50632;BME280;49583;45.590;-122.498;2023-04-24T07:56:15;101166.41;;;9.47;72.59
50632;BME280;49583;45.590;-122.498;2023-04-24T07:58:28;101162.65;;;9.42;72.72
50632;BME280;49583;45.590;-122.498;2023-04-24T08:00:40;101167.30;;;9.39;72.79
50632;BME280;49583;45.590;-122.498;2023-04-24T08:02:52;101167.87;;;9.37;72.93
50632;BME280;49583;45.590;-122.498;2023-04-24T08:05:06;101166.83;;;9.34;73.01
50632;BME280;49583;45.590;-122.498;2023-04-24T08:07:19;101172.96;;;9.35;72.90
50632;BME280;49583;45.590;-122.498;2023-04-24T08:09:31;101172.42;;;9.35;73.14
50632;BME280;49583;45.590;-122.498;2023-04-24T08:11:43;101172.86;;;9.37;73.64
50632;BME280;49583;45.590;-122.498;2023-04-24T08:13:56;101173.20;;;9.38;73.49
50632;BME280;49583;45.590;-122.498;2023-04-24T08:16:09;101174.50;;;9.37;73.22
50632;BME280;49583;45.590;-122.498;2023-04-24T08:18:21;101174.20;;;9.37;73.33
50632;BME280;49583;45.590;-122.498;2023-04-24T08:20:34;101177.02;;;9.38;73.44
50632;BME280;49583;45.590;-122.498;2023-04-24T08:22:47;101177.51;;;9.38;73.32
50632;BME280;49583;45.590;-122.498;2023-04-24T08:24:59;101182.00;;;9.37;73.54
50632;BME280;49583;45.590;-122.498;2023-04-24T08:27:13;101182.67;;;9.36;73.85
50632;BME280;49583;45.590;-122.498;2023-04-24T08:29:26;101188.39;;;9.35;73.83
50632;BME280;49583;45.590;-122.498;2023-04-24T08:31:38;101187.52;;;9.32;73.77
50632;BME280;49583;45.590;-122.498;2023-04-24T08:33:51;101188.77;;;9.30;74.13
50632;BME280;49583;45.590;-122.498;2023-04-24T08:36:04;101189.30;;;9.29;74.16
50632;BME280;49583;45.590;-122.498;2023-04-24T08:38:17;101188.06;;;9.29;74.24
50632;BME280;49583;45.590;-122.498;2023-04-24T08:40:32;101183.41;;;9.28;74.02
50632;BME280;49583;45.590;-122.498;2023-04-24T08:42:46;101183.70;;;9.29;74.03
50632;BME280;49583;45.590;-122.498;2023-04-24T08:45:01;101186.54;;;9.31;74.21
50632;BME280;49583;45.590;-122.498;2023-04-24T08:47:14;101186.08;;;9.31;74.23
50632;BME280;49583;45.590;-122.498;2023-04-24T08:49:27;101186.05;;;9.30;74.31
50632;BME280;49583;45.590;-122.498;2023-04-24T08:51:41;101180.77;;;9.28;74.23
50632;BME280;49583;45.590;-122.498;2023-04-24T08:53:55;101182.19;;;9.24;74.35
50632;BME280;49583;45.590;-122.498;2023-04-24T08:56:09;101183.30;;;9.23;74.32
50632;BME280;49583;45.590;-122.498;2023-04-24T08:58:23;101180.06;;;9.22;74.29
50632;BME280;49583;45.590;-122.498;2023-04-24T09:00:37;101180.83;;;9.21;74.51
50632;BME280;49583;45.590;-122.498;2023-04-24T09:02:57;101179.90;;;9.21;74.53
50632;BME280;49583;45.590;-122.498;2023-04-24T09:05:10;101180.73;;;9.20;74.53
50632;BME280;49583;45.590;-122.498;2023-04-24T09:07:26;101181.53;;;9.18;74.78
50632;BME280;49583;45.590;-122.498;2023-04-24T09:09:40;101178.48;;;9.17;74.62
50632;BME280;49583;45.590;-122.498;2023-04-24T09:11:54;101177.48;;;9.17;74.70
50632;BME280;49583;45.590;-122.498;2023-04-24T09:14:07;101181.85;;;9.17;74.46
50632;BME280;49583;45.590;-122.498;2023-04-24T09:16:21;101179.89;;;9.17;74.82
50632;BME280;49583;45.590;-122.498;2023-04-24T09:18:34;101183.98;;;9.17;74.71
50632;BME280;49583;45.590;-122.498;2023-04-24T09:21:03;101185.81;;;9.16;75.03
50632;BME280;49583;45.590;-122.498;2023-04-24T09:23:19;101187.67;;;9.16;74.79
50632;BME280;49583;45.590;-122.498;2023-04-24T09:25:35;101187.02;;;9.15;74.71
50632;BME280;49583;45.590;-122.498;2023-04-24T09:27:48;101186.73;;;9.14;74.94
50632;BME280;49583;45.590;-122.498;2023-04-24T09:30:01;101193.20;;;9.14;74.86
50632;BME280;49583;45.590;-122.498;2023-04-24T09:32:24;101190.89;;;9.12;74.76
50632;BME280;49583;45.590;-122.498;2023-04-24T09:34:37;101190.67;;;9.10;75.09
50632;BME280;49583;45.590;-122.498;2023-04-24T09:36:50;101191.52;;;9.08;75.14
50632;BME280;49583;45.590;-122.498;2023-04-24T09:39:03;101195.73;;;9.08;75.15
50632;BME280;49583;45.590;-122.498;2023-04-24T09:41:16;101202.19;;;9.09;75.18
50632;BME280;49583;45.590;-122.498;2023-04-24T09:43:28;101205.77;;;9.09;74.75
50632;BME280;49583;45.590;-122.498;2023-04-24T09:45:41;101204.79;;;9.10;74.84
50632;BME280;49583;45.590;-122.498;2023-04-24T09:47:55;101209.41;;;9.10;74.83
50632;BME280;49583;45.590;-122.498;2023-04-24T09:50:18;101212.37;;;9.10;75.09
50632;BME280;49583;45.590;-122.498;2023-04-24T09:52:31;101208.02;;;9.11;75.20
50632;BME280;49583;45.590;-122.498;2023-04-24T09:54:46;101211.08;;;9.11;74.96
50632;BME280;49583;45.590;-122.498;2023-04-24T09:57:04;101213.94;;;9.10;75.21
50632;BME280;49583;45.590;-122.498;2023-04-24T09:59:20;101214.05;;;9.09;75.16
50632;BME280;49583;45.590;-122.498;2023-04-24T10:05:08;101213.34;;;9.07;75.23
50632;BME280;49583;45.590;-122.498;2023-04-24T10:07:34;101212.84;;;9.04;75.24
50632;BME280;49583;45.590;-122.498;2023-04-24T10:09:56;101221.65;;;9.05;75.48
50632;BME280;49583;45.590;-122.498;2023-04-24T10:12:18;101221.14;;;9.04;75.61
50632;BME280;49583;45.590;-122.498;2023-04-24T10:14:51;101228.06;;;9.02;75.41
50632;BME280;49583;45.590;-122.498;2023-04-24T10:17:15;101228.64;;;9.02;75.46
50632;BME280;49583;45.590;-122.498;2023-04-24T10:19:28;101228.42;;;9.01;75.65
50632;BME280;49583;45.590;-122.498;2023-04-24T10:21:51;101223.92;;;9.00;75.61
50632;BME280;49583;45.590;-122.498;2023-04-24T10:24:25;101224.92;;;8.99;75.63
50632;BME280;49583;45.590;-122.498;2023-04-24T10:26:42;101230.39;;;8.99;75.62
50632;BME280;49583;45.590;-122.498;2023-04-24T10:28:59;101229.23;;;9.00;75.86
50632;BME280;49583;45.590;-122.498;2023-04-24T10:31:23;101228.45;;;9.00;75.54
50632;BME280;49583;45.590;-122.498;2023-04-24T10:33:36;101237.23;;;8.99;75.69
50632;BME280;49583;45.590;-122.498;2023-04-24T10:36:02;101242.48;;;8.99;75.90
50632;BME280;49583;45.590;-122.498;2023-04-24T10:38:16;101242.80;;;8.99;75.97
50632;BME280;49583;45.590;-122.498;2023-04-24T10:40:45;101249.77;;;9.00;75.66
50632;BME280;49583;45.590;-122.498;2023-04-24T10:43:04;101252.45;;;8.99;75.90
50632;BME280;49583;45.590;-122.498;2023-04-24T10:45:28;101252.92;;;8.97;76.05
50632;BME280;49583;45.590;-122.498;2023-04-24T10:48:04;101255.02;;;8.96;75.94
50632;BME280;49583;45.590;-122.498;2023-04-24T10:50:50;101256.70;;;8.95;76.20
50632;BME280;49583;45.590;-122.498;2023-04-24T10:53:17;101254.98;;;8.95;76.00
50632;BME280;49583;45.590;-122.498;2023-04-24T10:55:46;101252.86;;;8.95;76.00
50632;BME280;49583;45.590;-122.498;2023-04-24T10:58:08;101256.41;;;8.96;76.10
50632;BME280;49583;45.590;-122.498;2023-04-24T11:00:24;101254.75;;;8.93;76.22
50632;BME280;49583;45.590;-122.498;2023-04-24T11:02:41;101255.83;;;8.97;75.86
50632;BME280;49583;45.590;-122.498;2023-04-24T11:05:20;101263.59;;;8.98;76.09
50632;BME280;49583;45.590;-122.498;2023-04-24T11:08:12;101263.21;;;8.96;76.18
50632;BME280;49583;45.590;-122.498;2023-04-24T11:10:54;101265.70;;;8.96;75.90
50632;BME280;49583;45.590;-122.498;2023-04-24T11:13:20;101265.46;;;8.96;76.19
50632;BME280;49583;45.590;-122.498;2023-04-24T11:15:33;101265.24;;;8.94;76.29
50632;BME280;49583;45.590;-122.498;2023-04-24T11:17:46;101261.39;;;8.94;76.05
50632;BME280;49583;45.590;-122.498;2023-04-24T11:20:11;101263.71;;;8.93;76.08
50632;BME280;49583;45.590;-122.498;2023-04-24T11:22:37;101264.16;;;8.93;76.12
50632;BME280;49583;45.590;-122.498;2023-04-24T11:24:55;101264.42;;;8.93;76.30
50632;BME280;49583;45.590;-122.498;2023-04-24T11:27:32;101266.77;;;8.93;76.19